Terminal Aerodrome Forecast
Issued by NWS

Home | Current Version | Previous Version | Text Only | Print | Product List | Glossary On
Versions: 1 2 3 4 5 6 7 8 9 10 11 12 13 14 15 16 17 18 19 20 21 22 23 24 25 26 27
000
FTUS43 KDLH 310800 AAB
TAFHYR
TAF AMD
KHYR 310808Z 3108/0106 VRB02KT 2SM BR SCT005
      TEMPO 3108/3112 1/2SM FG VV002
     FM311500 33007KT P6SM SCT050=

USA.gov is the U.S. government's official web portal to all federal, state and local government web resources and services.